sensor_id;sensor_type;location;lat;lon;timestamp;pressure;altitude;pressure_sealevel;temperature;humidity
49689;BME280;70518;51.400;7.428;2023-07-31T00:00:29;158985.91;;;19.53;100.00
49689;BME280;70518;51.400;7.428;2023-07-31T00:02:55;158995.00;;;19.56;100.00
49689;BME280;70518;51.400;7.428;2023-07-31T00:05:20;158923.59;;;19.28;100.00
49689;BME280;70518;51.400;7.428;2023-07-31T00:07:45;158878.19;;;19.11;100.00
49689;BME280;70518;51.400;7.428;2023-07-31T00:10:11;158958.63;;;19.42;100.00
49689;BME280;70518;51.400;7.428;2023-07-31T00:12:41;158980.72;;;19.51;100.00
49689;BME280;70518;51.400;7.428;2023-07-31T00:15:07;159007.94;;;19.61;100.00
49689;BME280;70518;51.400;7.428;2023-07-31T00:17:33;159015.72;;;19.64;100.00
49689;BME280;70518;51.400;7.428;2023-07-31T00:19:58;159033.91;;;19.71;100.00
49689;BME280;70518;51.400;7.428;2023-07-31T00:22:23;159083.19;;;19.90;100.00
49689;BME280;70518;51.400;7.428;2023-07-31T00:24:49;159078.00;;;19.88;100.00
49689;BME280;70518;51.400;7.428;2023-07-31T00:27:14;158984.59;;;19.52;100.00
49689;BME280;70518;51.400;7.428;2023-07-31T00:29:39;158985.91;;;19.53;100.00
49689;BME280;70518;51.400;7.428;2023-07-31T00:32:05;159019.59;;;19.66;100.00
49689;BME280;70518;51.400;7.428;2023-07-31T00:34:30;158952.16;;;19.39;100.00
49689;BME280;70518;51.400;7.428;2023-07-31T00:36:56;158946.94;;;19.37;100.00
49689;BME280;70518;51.400;7.428;2023-07-31T00:39:21;158992.38;;;19.55;100.00
49689;BME280;70518;51.400;7.428;2023-07-31T00:41:46;159001.47;;;19.59;100.00
49689;BME280;70518;51.400;7.428;2023-07-31T00:44:12;159049.47;;;19.77;100.00
49689;BME280;70518;51.400;7.428;2023-07-31T00:46:37;159044.25;;;19.75;100.00
49689;BME280;70518;51.400;7.428;2023-07-31T00:49:03;159100.06;;;19.97;100.00
49689;BME280;70518;51.400;7.428;2023-07-31T00:51:29;158959.94;;;19.42;100.00
49689;BME280;70518;51.400;7.428;2023-07-31T00:53:55;158935.28;;;19.33;100.00
49689;BME280;70518;51.400;7.428;2023-07-31T00:56:21;158910.63;;;19.23;100.00
49689;BME280;70518;51.400;7.428;2023-07-31T00:58:46;158927.50;;;19.30;100.00
49689;BME280;70518;51.400;7.428;2023-07-31T01:01:12;159065.03;;;19.83;100.00
49689;BME280;70518;51.400;7.428;2023-07-31T01:03:37;158913.19;;;19.24;100.00
49689;BME280;70518;51.400;7.428;2023-07-31T01:06:27;158910.63;;;19.23;100.00
49689;BME280;70518;51.400;7.428;2023-07-31T01:09:14;158896.38;;;19.18;100.00
49689;BME280;70518;51.400;7.428;2023-07-31T01:11:57;158884.69;;;19.13;100.00
49689;BME280;70518;51.400;7.428;2023-07-31T01:14:22;158878.19;;;19.11;100.00
49689;BME280;70518;51.400;7.428;2023-07-31T01:16:48;158926.19;;;19.29;100.00
49689;BME280;70518;51.400;7.428;2023-07-31T01:19:14;158900.25;;;19.19;100.00
49689;BME280;70518;51.400;7.428;2023-07-31T01:24:24;158863.94;;;19.05;100.00
49689;BME280;70518;51.400;7.428;2023-07-31T01:26:57;158876.91;;;19.10;100.00
49689;BME280;70518;51.400;7.428;2023-07-31T01:32:04;158871.72;;;19.08;100.00
49689;BME280;70518;51.400;7.428;2023-07-31T01:34:30;158919.72;;;19.27;100.00
49689;BME280;70518;51.400;7.428;2023-07-31T01:36:56;158930.06;;;19.31;100.00
49689;BME280;70518;51.400;7.428;2023-07-31T01:39:23;158892.47;;;19.16;100.00
49689;BME280;70518;51.400;7.428;2023-07-31T01:41:48;158883.38;;;19.13;100.00
49689;BME280;70518;51.400;7.428;2023-07-31T01:44:13;158889.84;;;19.15;100.00
49689;BME280;70518;51.400;7.428;2023-07-31T01:46:39;158847.06;;;18.99;100.00
49689;BME280;70518;51.400;7.428;2023-07-31T01:49:06;158860.03;;;19.04;100.00
49689;BME280;70518;51.400;7.428;2023-07-31T01:51:31;158884.69;;;19.13;100.00
49689;BME280;70518;51.400;7.428;2023-07-31T01:54:02;158839.28;;;18.96;100.00
49689;BME280;70518;51.400;7.428;2023-07-31T01:56:27;158863.94;;;19.05;100.00
49689;BME280;70518;51.400;7.428;2023-07-31T01:58:52;158825.03;;;18.90;100.00
49689;BME280;70518;51.400;7.428;2023-07-31T02:01:18;158814.66;;;18.86;100.00
49689;BME280;70518;51.400;7.428;2023-07-31T02:03:43;158836.69;;;18.95;100.00
49689;BME280;70518;51.400;7.428;2023-07-31T02:06:08;158835.44;;;18.94;100.00
49689;BME280;70518;51.400;7.428;2023-07-31T02:08:33;158814.66;;;18.86;100.00
49689;BME280;70518;51.400;7.428;2023-07-31T02:10:59;158844.47;;;18.98;100.00
49689;BME280;70518;51.400;7.428;2023-07-31T02:13:25;158848.38;;;18.99;100.00
49689;BME280;70518;51.400;7.428;2023-07-31T02:15:50;158869.13;;;19.07;100.00
49689;BME280;70518;51.400;7.428;2023-07-31T02:18:16;159010.56;;;19.62;100.00
49689;BME280;70518;51.400;7.428;2023-07-31T02:20:41;159000.16;;;19.58;100.00
49689;BME280;70518;51.400;7.428;2023-07-31T02:23:06;158913.19;;;19.24;100.00
49689;BME280;70518;51.400;7.428;2023-07-31T02:25:31;158883.38;;;19.13;100.00
49689;BME280;70518;51.400;7.428;2023-07-31T02:27:57;158880.81;;;19.12;100.00
49689;BME280;70518;51.400;7.428;2023-07-31T02:30:22;158832.81;;;18.93;100.00
49689;BME280;70518;51.400;7.428;2023-07-31T02:32:47;158834.13;;;18.94;100.00
49689;BME280;70518;51.400;7.428;2023-07-31T02:35:13;158843.22;;;18.97;100.00
49689;BME280;70518;51.400;7.428;2023-07-31T02:37:41;158849.69;;;19.00;100.00
49689;BME280;70518;51.400;7.428;2023-07-31T02:40:06;158803.00;;;18.81;100.00
49689;BME280;70518;51.400;7.428;2023-07-31T02:42:32;158792.63;;;18.77;100.00
49689;BME280;70518;51.400;7.428;2023-07-31T02:44:57;158788.75;;;18.76;100.00
49689;BME280;70518;51.400;7.428;2023-07-31T02:47:22;158821.13;;;18.88;100.00
49689;BME280;70518;51.400;7.428;2023-07-31T02:49:48;158773.19;;;18.70;100.00
49689;BME280;70518;51.400;7.428;2023-07-31T02:52:13;158767.97;;;18.68;100.00
49689;BME280;70518;51.400;7.428;2023-07-31T02:54:38;158751.16;;;18.61;100.00
49689;BME280;70518;51.400;7.428;2023-07-31T02:57:04;158762.81;;;18.66;100.00
49689;BME280;70518;51.400;7.428;2023-07-31T02:59:30;158780.97;;;18.73;100.00
49689;BME280;70518;51.400;7.428;2023-07-31T03:01:55;158812.09;;;18.85;100.00
49689;BME280;70518;51.400;7.428;2023-07-31T03:04:20;158879.50;;;19.11;100.00
49689;BME280;70518;51.400;7.428;2023-07-31T03:06:46;158804.31;;;18.82;100.00
49689;BME280;70518;51.400;7.428;2023-07-31T03:09:11;158822.44;;;18.89;100.00
49689;BME280;70518;51.400;7.428;2023-07-31T03:11:36;158803.00;;;18.81;100.00
49689;BME280;70518;51.400;7.428;2023-07-31T03:14:01;158797.84;;;18.79;100.00
49689;BME280;70518;51.400;7.428;2023-07-31T03:16:27;158897.63;;;19.18;100.00
49689;BME280;70518;51.400;7.428;2023-07-31T03:18:52;158843.22;;;18.97;100.00
49689;BME280;70518;51.400;7.428;2023-07-31T03:21:18;158778.34;;;18.72;100.00
49689;BME280;70518;51.400;7.428;2023-07-31T03:23:43;158771.88;;;18.69;100.00
49689;BME280;70518;51.400;7.428;2023-07-31T03:26:08;158797.84;;;18.79;100.00
49689;BME280;70518;51.400;7.428;2023-07-31T03:28:34;158804.31;;;18.82;100.00
49689;BME280;70518;51.400;7.428;2023-07-31T03:30:59;158797.84;;;18.79;100.00
49689;BME280;70518;51.400;7.428;2023-07-31T03:33:25;158840.59;;;18.96;100.00
49689;BME280;70518;51.400;7.428;2023-07-31T03:35:50;158821.13;;;18.88;100.00
49689;BME280;70518;51.400;7.428;2023-07-31T03:38:16;158823.75;;;18.90;100.00
49689;BME280;70518;51.400;7.428;2023-07-31T03:40:41;158790.06;;;18.76;100.00
49689;BME280;70518;51.400;7.428;2023-07-31T03:43:06;158814.66;;;18.86;100.00
49689;BME280;70518;51.400;7.428;2023-07-31T03:45:32;158786.13;;;18.75;100.00
49689;BME280;70518;51.400;7.428;2023-07-31T03:47:57;158805.63;;;18.82;100.00
49689;BME280;70518;51.400;7.428;2023-07-31T03:50:22;158823.75;;;18.90;100.00
49689;BME280;70518;51.400;7.428;2023-07-31T03:52:48;158849.69;;;19.00;100.00
49689;BME280;70518;51.400;7.428;2023-07-31T03:55:13;158854.84;;;19.02;100.00
49689;BME280;70518;51.400;7.428;2023-07-31T03:57:38;158845.78;;;18.98;100.00
49689;BME280;70518;51.400;7.428;2023-07-31T04:00:04;158839.28;;;18.96;100.00
49689;BME280;70518;51.400;7.428;2023-07-31T04:02:29;158843.22;;;18.97;100.00
49689;BME280;70518;51.400;7.428;2023-07-31T04:04:55;158845.78;;;18.98;100.00
49689;BME280;70518;51.400;7.428;2023-07-31T04:07:20;158841.91;;;18.97;100.00
49689;BME280;70518;51.400;7.428;2023-07-31T04:09:45;158865.25;;;19.06;100.00
49689;BME280;70518;51.400;7.428;2023-07-31T04:12:11;158862.63;;;19.05;100.00
49689;BME280;70518;51.400;7.428;2023-07-31T04:14:36;158875.59;;;19.10;100.00
49689;BME280;70518;51.400;7.428;2023-07-31T04:17:02;158875.59;;;19.10;100.00
49689;BME280;70518;51.400;7.428;2023-07-31T04:19:27;158874.34;;;19.09;100.00
49689;BME280;70518;51.400;7.428;2023-07-31T04:21:52;158765.41;;;18.67;100.00
49689;BME280;70518;51.400;7.428;2023-07-31T04:24:17;158860.03;;;19.04;100.00
49689;BME280;70518;51.400;7.428;2023-07-31T04:26:49;158887.28;;;19.14;100.00
49689;BME280;70518;51.400;7.428;2023-07-31T04:29:14;158904.16;;;19.21;100.00
49689;BME280;70518;51.400;7.428;2023-07-31T04:31:41;158926.19;;;19.29;100.00
49689;BME280;70518;51.400;7.428;2023-07-31T04:34:06;158882.06;;;19.12;100.00
49689;BME280;70518;51.400;7.428;2023-07-31T04:36:31;158873.03;;;19.09;100.00
49689;BME280;70518;51.400;7.428;2023-07-31T04:38:56;158870.41;;;19.08;100.00
49689;BME280;70518;51.400;7.428;2023-07-31T04:41:22;158880.81;;;19.12;100.00
49689;BME280;70518;51.400;7.428;2023-07-31T04:43:47;158879.50;;;19.11;100.00
49689;BME280;70518;51.400;7.428;2023-07-31T04:46:12;158928.75;;;19.30;100.00
49689;BME280;70518;51.400;7.428;2023-07-31T04:48:38;158949.53;;;19.38;100.00
49689;BME280;70518;51.400;7.428;2023-07-31T04:51:03;158918.41;;;19.26;100.00
49689;BME280;70518;51.400;7.428;2023-07-31T04:53:28;158931.38;;;19.31;100.00
49689;BME280;70518;51.400;7.428;2023-07-31T04:55:53;158931.38;;;19.31;100.00
49689;BME280;70518;51.400;7.428;2023-07-31T04:58:19;158935.28;;;19.33;100.00
49689;BME280;70518;51.400;7.428;2023-07-31T05:00:44;158966.41;;;19.45;100.00
49689;BME280;70518;51.400;7.428;2023-07-31T05:03:10;158927.50;;;19.30;100.00
49689;BME280;70518;51.400;7.428;2023-07-31T05:05:36;158931.38;;;19.31;100.00
49689;BME280;70518;51.400;7.428;2023-07-31T05:08:02;158949.53;;;19.38;100.00
49689;BME280;70518;51.400;7.428;2023-07-31T05:10:27;158962.53;;;19.44;100.00
49689;BME280;70518;51.400;7.428;2023-07-31T05:12:52;158915.81;;;19.25;100.00
49689;BME280;70518;51.400;7.428;2023-07-31T05:15:18;158967.72;;;19.46;100.00
49689;BME280;70518;51.400;7.428;2023-07-31T05:17:43;158944.31;;;19.36;100.00
49689;BME280;70518;51.400;7.428;2023-07-31T05:20:08;158939.16;;;19.34;100.00
49689;BME280;70518;51.400;7.428;2023-07-31T05:22:34;158923.59;;;19.28;100.00
49689;BME280;70518;51.400;7.428;2023-07-31T05:24:59;159011.84;;;19.63;100.00
49689;BME280;70518;51.400;7.428;2023-07-31T05:27:25;159020.91;;;19.66;100.00
49689;BME280;70518;51.400;7.428;2023-07-31T05:29:50;159026.13;;;19.68;100.00
49689;BME280;70518;51.400;7.428;2023-07-31T05:32:15;159017.03;;;19.65;100.00
49689;BME280;70518;51.400;7.428;2023-07-31T05:34:41;159005.34;;;19.60;100.00
49689;BME280;70518;51.400;7.428;2023-07-31T05:37:06;159020.91;;;19.66;100.00
49689;BME280;70518;51.400;7.428;2023-07-31T05:39:31;159030.00;;;19.70;100.00
49689;BME280;70518;51.400;7.428;2023-07-31T05:41:56;159027.38;;;19.69;100.00
49689;BME280;70518;51.400;7.428;2023-07-31T05:44:22;159044.25;;;19.75;100.00
49689;BME280;70518;51.400;7.428;2023-07-31T05:46:47;159089.66;;;19.93;100.00
49689;BME280;70518;51.400;7.428;2023-07-31T05:49:12;159055.94;;;19.80;100.00
49689;BME280;70518;51.400;7.428;2023-07-31T05:51:38;159084.47;;;19.91;100.00
49689;BME280;70518;51.400;7.428;2023-07-31T05:54:03;159116.94;;;20.04;100.00
49689;BME280;70518;51.400;7.428;2023-07-31T05:56:28;159083.19;;;19.90;100.00
49689;BME280;70518;51.400;7.428;2023-07-31T05:58:53;159085.78;;;19.91;100.00
49689;BME280;70518;51.400;7.428;2023-07-31T06:01:19;159061.13;;;19.82;100.00
49689;BME280;70518;51.400;7.428;2023-07-31T06:03:46;159055.94;;;19.80;100.00
49689;BME280;70518;51.400;7.428;2023-07-31T06:06:11;158989.75;;;19.54;100.00
49689;BME280;70518;51.400;7.428;2023-07-31T06:08:37;158988.50;;;19.54;100.00
49689;BME280;70518;51.400;7.428;2023-07-31T06:11:02;159033.91;;;19.71;100.00
49689;BME280;70518;51.400;7.428;2023-07-31T06:13:27;159061.13;;;19.82;100.00
49689;BME280;70518;51.400;7.428;2023-07-31T06:15:53;159083.19;;;19.90;100.00
49689;BME280;70518;51.400;7.428;2023-07-31T06:18:18;159102.66;;;19.98;100.00
49689;BME280;70518;51.400;7.428;2023-07-31T06:20:43;159128.59;;;20.08;100.00
49689;BME280;70518;51.400;7.428;2023-07-31T06:23:09;159166.22;;;20.23;100.00
49689;BME280;70518;51.400;7.428;2023-07-31T06:25:34;159174.03;;;20.26;100.00
49689;BME280;70518;51.400;7.428;2023-07-31T06:28:00;159189.63;;;20.32;100.00
49689;BME280;70518;51.400;7.428;2023-07-31T06:30:25;159190.94;;;20.32;100.00
49689;BME280;70518;51.400;7.428;2023-07-31T06:32:50;159132.50;;;20.10;100.00
49689;BME280;70518;51.400;7.428;2023-07-31T06:35:15;159093.56;;;19.94;100.00
49689;BME280;70518;51.400;7.428;2023-07-31T06:37:41;159103.91;;;19.98;100.00
49689;BME280;70518;51.400;7.428;2023-07-31T06:40:09;159059.81;;;19.81;100.00
49689;BME280;70518;51.400;7.428;2023-07-31T06:42:35;159037.78;;;19.73;100.00
49689;BME280;70518;51.400;7.428;2023-07-31T06:45:01;159040.38;;;19.74;100.00
49689;BME280;70518;51.400;7.428;2023-07-31T06:47:26;159094.88;;;19.95;100.00
49689;BME280;70518;51.400;7.428;2023-07-31T06:49:52;159126.03;;;20.07;100.00
49689;BME280;70518;51.400;7.428;2023-07-31T06:52:17;159124.72;;;20.07;100.00
49689;BME280;70518;51.400;7.428;2023-07-31T06:54:42;159126.03;;;20.07;100.00
49689;BME280;70518;51.400;7.428;2023-07-31T06:57:07;159090.97;;;19.93;100.00
49689;BME280;70518;51.400;7.428;2023-07-31T06:59:33;159089.66;;;19.93;100.00
49689;BME280;70518;51.400;7.428;2023-07-31T07:01:58;159039.09;;;19.73;100.00
49689;BME280;70518;51.400;7.428;2023-07-31T07:04:23;159063.75;;;19.83;100.00
49689;BME280;70518;51.400;7.428;2023-07-31T07:06:49;159057.25;;;19.80;100.00
49689;BME280;70518;51.400;7.428;2023-07-31T07:09:14;159058.50;;;19.81;100.00
49689;BME280;70518;51.400;7.428;2023-07-31T07:11:39;159006.63;;;19.61;100.00
49689;BME280;70518;51.400;7.428;2023-07-31T07:14:05;158983.28;;;19.52;100.00
49689;BME280;70518;51.400;7.428;2023-07-31T07:16:30;159022.19;;;19.67;100.00
49689;BME280;70518;51.400;7.428;2023-07-31T07:18:55;159009.25;;;19.62;100.00
49689;BME280;70518;51.400;7.428;2023-07-31T07:21:20;158993.69;;;19.56;100.00
49689;BME280;70518;51.400;7.428;2023-07-31T07:23:46;159040.38;;;19.74;100.00
49689;BME280;70518;51.400;7.428;2023-07-31T07:26:11;158971.63;;;19.47;100.00
49689;BME280;70518;51.400;7.428;2023-07-31T07:28:36;159004.06;;;19.60;100.00
49689;BME280;70518;51.400;7.428;2023-07-31T07:31:02;159022.19;;;19.67;100.00
49689;BME280;70518;51.400;7.428;2023-07-31T07:33:28;159005.34;;;19.60;100.00
49689;BME280;70518;51.400;7.428;2023-07-31T07:35:53;159030.00;;;19.70;100.00
49689;BME280;70518;51.400;7.428;2023-07-31T07:38:19;159023.50;;;19.67;100.00
49689;BME280;70518;51.400;7.428;2023-07-31T07:40:44;158998.84;;;19.58;100.00
49689;BME280;70518;51.400;7.428;2023-07-31T07:43:11;159055.94;;;19.80;100.00
49689;BME280;70518;51.400;7.428;2023-07-31T07:45:37;159052.03;;;19.78;100.00
49689;BME280;70518;51.400;7.428;2023-07-31T07:48:02;159088.34;;;19.92;100.00
49689;BME280;70518;51.400;7.428;2023-07-31T07:50:27;159094.88;;;19.95;100.00
49689;BME280;70518;51.400;7.428;2023-07-31T07:52:53;159078.00;;;19.88;100.00
49689;BME280;70518;51.400;7.428;2023-07-31T07:55:18;159072.81;;;19.86;100.00
49689;BME280;70518;51.400;7.428;2023-07-31T07:57:43;159114.31;;;20.03;100.00
49689;BME280;70518;51.400;7.428;2023-07-31T08:00:10;159092.28;;;19.94;100.00
49689;BME280;70518;51.400;7.428;2023-07-31T08:02:35;159093.56;;;19.94;100.00
49689;BME280;70518;51.400;7.428;2023-07-31T08:05:01;159090.97;;;19.93;100.00
49689;BME280;70518;51.400;7.428;2023-07-31T08:07:26;159087.09;;;19.92;100.00
49689;BME280;70518;51.400;7.428;2023-07-31T08:09:52;159071.53;;;19.86;100.00
49689;BME280;70518;51.400;7.428;2023-07-31T08:12:17;159097.44;;;19.96;100.00
49689;BME280;70518;51.400;7.428;2023-07-31T08:14:42;159141.59;;;20.13;100.00
49689;BME280;70518;51.400;7.428;2023-07-31T08:17:08;159119.50;;;20.05;100.00
49689;BME280;70518;51.400;7.428;2023-07-31T08:19:34;159118.22;;;20.04;100.00
49689;BME280;70518;51.400;7.428;2023-07-31T08:21:59;159131.19;;;20.09;100.00
49689;BME280;70518;51.400;7.428;2023-07-31T08:24:24;159157.13;;;20.19;100.00
49689;BME280;70518;51.400;7.428;2023-07-31T08:26:50;159094.88;;;19.95;100.00
49689;BME280;70518;51.400;7.428;2023-07-31T08:29:15;159022.19;;;19.67;100.00
49689;BME280;70518;51.400;7.428;2023-07-31T08:31:40;159031.28;;;19.70;100.00
49689;BME280;70518;51.400;7.428;2023-07-31T08:34:05;159041.69;;;19.74;100.00
49689;BME280;70518;51.400;7.428;2023-07-31T08:36:31;159026.13;;;19.68;100.00
49689;BME280;70518;51.400;7.428;2023-07-31T08:38:56;159035.16;;;19.72;100.00
49689;BME280;70518;51.400;7.428;2023-07-31T08:41:21;159076.69;;;19.88;100.00
49689;BME280;70518;51.400;7.428;2023-07-31T08:43:49;159089.66;;;19.93;100.00
49689;BME280;70518;51.400;7.428;2023-07-31T08:46:14;159101.34;;;19.98;100.00
49689;BME280;70518;51.400;7.428;2023-07-31T08:48:43;159040.38;;;19.74;100.00
49689;BME280;70518;51.400;7.428;2023-07-31T08:51:09;159068.91;;;19.85;100.00
49689;BME280;70518;51.400;7.428;2023-07-31T08:53:35;159072.81;;;19.86;100.00
49689;BME280;70518;51.400;7.428;2023-07-31T08:56:00;159120.81;;;20.05;100.00
49689;BME280;70518;51.400;7.428;2023-07-31T08:58:31;159126.03;;;20.07;100.00
49689;BME280;70518;51.400;7.428;2023-07-31T09:00:57;159150.63;;;20.17;100.00
49689;BME280;70518;51.400;7.428;2023-07-31T09:03:25;159157.13;;;20.19;100.00
49689;BME280;70518;51.400;7.428;2023-07-31T09:05:51;159118.22;;;20.04;100.00
49689;BME280;70518;51.400;7.428;2023-07-31T09:08:21;159120.81;;;20.05;100.00
49689;BME280;70518;51.400;7.428;2023-07-31T09:10:47;159129.88;;;20.09;100.00
49689;BME280;70518;51.400;7.428;2023-07-31T09:13:15;159131.19;;;20.09;100.00
49689;BME280;70518;51.400;7.428;2023-07-31T09:15:43;159141.59;;;20.13;100.00
49689;BME280;70518;51.400;7.428;2023-07-31T09:18:09;159133.81;;;20.10;100.00
49689;BME280;70518;51.400;7.428;2023-07-31T09:20:35;159089.66;;;19.93;100.00
49689;BME280;70518;51.400;7.428;2023-07-31T09:23:12;159110.44;;;20.01;100.00
49689;BME280;70518;51.400;7.428;2023-07-31T09:25:39;159052.03;;;19.78;100.00
49689;BME280;70518;51.400;7.428;2023-07-31T09:28:07;159129.88;;;20.09;100.00
49689;BME280;70518;51.400;7.428;2023-07-31T09:30:47;159227.25;;;20.46;100.00
49689;BME280;70518;51.400;7.428;2023-07-31T09:33:13;159263.63;;;20.61;100.00
49689;BME280;70518;51.400;7.428;2023-07-31T09:35:38;159303.81;;;20.76;100.00
49689;BME280;70518;51.400;7.428;2023-07-31T09:38:07;159351.88;;;20.95;100.00
49689;BME280;70518;51.400;7.428;2023-07-31T09:40:35;159403.84;;;21.15;100.00
49689;BME280;70518;51.400;7.428;2023-07-31T09:43:09;159336.28;;;20.89;100.00
49689;BME280;70518;51.400;7.428;2023-07-31T09:45:39;159309.06;;;20.78;100.00
49689;BME280;70518;51.400;7.428;2023-07-31T09:48:09;159310.31;;;20.79;100.00
49689;BME280;70518;51.400;7.428;2023-07-31T09:50:37;159237.66;;;20.50;100.00
49689;BME280;70518;51.400;7.428;2023-07-31T09:53:03;159200.03;;;20.36;100.00
49689;BME280;70518;51.400;7.428;2023-07-31T09:55:29;159198.72;;;20.35;100.00
49689;BME280;70518;51.400;7.428;2023-07-31T09:57:57;159203.88;;;20.37;100.00
49689;BME280;70518;51.400;7.428;2023-07-31T10:00:23;159151.94;;;20.17;100.00
49689;BME280;70518;51.400;7.428;2023-07-31T10:02:51;158980.72;;;19.51;100.00
49689;BME280;70518;51.400;7.428;2023-07-31T10:05:17;158939.16;;;19.34;100.00
49689;BME280;70518;51.400;7.428;2023-07-31T10:07:54;159096.13;;;19.95;100.00
49689;BME280;70518;51.400;7.428;2023-07-31T10:10:20;159072.81;;;19.86;100.00
49689;BME280;70518;51.400;7.428;2023-07-31T10:12:48;159037.78;;;19.73;100.00
49689;BME280;70518;51.400;7.428;2023-07-31T10:15:14;159137.69;;;20.12;100.00
49689;BME280;70518;51.400;7.428;2023-07-31T10:17:40;159151.94;;;20.17;100.00
49689;BME280;70518;51.400;7.428;2023-07-31T10:20:06;159144.16;;;20.14;100.00
49689;BME280;70518;51.400;7.428;2023-07-31T10:22:32;159149.31;;;20.16;100.00
49689;BME280;70518;51.400;7.428;2023-07-31T10:24:59;159164.91;;;20.22;100.00
49689;BME280;70518;51.400;7.428;2023-07-31T10:27:25;159063.75;;;19.83;100.00
49689;BME280;70518;51.400;7.428;2023-07-31T10:29:52;159128.59;;;20.08;100.00
49689;BME280;70518;51.400;7.428;2023-07-31T10:32:19;159216.91;;;20.42;100.00
49689;BME280;70518;51.400;7.428;2023-07-31T10:34:45;159168.81;;;20.24;100.00
49689;BME280;70518;51.400;7.428;2023-07-31T10:37:28;159137.69;;;20.12;100.00
49689;BME280;70518;51.400;7.428;2023-07-31T10:40:02;159183.13;;;20.29;100.00
49689;BME280;70518;51.400;7.428;2023-07-31T10:42:33;159132.50;;;20.10;100.00
49689;BME280;70518;51.400;7.428;2023-07-31T10:45:04;159110.44;;;20.01;100.00
49689;BME280;70518;51.400;7.428;2023-07-31T10:47:30;159138.97;;;20.12;100.00
49689;BME280;70518;51.400;7.428;2023-07-31T10:50:32;159237.66;;;20.50;100.00
49689;BME280;70518;51.400;7.428;2023-07-31T10:52:58;159232.47;;;20.48;100.00
49689;BME280;70518;51.400;7.428;2023-07-31T10:55:28;159222.06;;;20.44;100.00
49689;BME280;70518;51.400;7.428;2023-07-31T10:58:07;159115.63;;;20.03;100.00
49689;BME280;70518;51.400;7.428;2023-07-31T11:00:33;159142.84;;;20.14;100.00
49689;BME280;70518;51.400;7.428;2023-07-31T11:05:42;159189.63;;;20.32;100.00
49689;BME280;70518;51.400;7.428;2023-07-31T11:08:18;159229.88;;;20.47;100.00
49689;BME280;70518;51.400;7.428;2023-07-31T11:10:49;159210.41;;;20.40;100.00
49689;BME280;70518;51.400;7.428;2023-07-31T11:13:15;159242.81;;;20.52;100.00
49689;BME280;70518;51.400;7.428;2023-07-31T11:15:40;159250.63;;;20.56;100.00
49689;BME280;70518;51.400;7.428;2023-07-31T11:18:06;159146.75;;;20.15;100.00
49689;BME280;70518;51.400;7.428;2023-07-31T11:20:34;159229.88;;;20.47;100.00
49689;BME280;70518;51.400;7.428;2023-07-31T11:23:06;159323.31;;;20.84;100.00
49689;BME280;70518;51.400;7.428;2023-07-31T11:25:32;159302.53;;;20.76;100.00
49689;BME280;70518;51.400;7.428;2023-07-31T11:30:29;159323.31;;;20.84;100.00
49689;BME280;70518;51.400;7.428;2023-07-31T11:32:55;159258.41;;;20.59;100.00
49689;BME280;70518;51.400;7.428;2023-07-31T11:35:21;159263.63;;;20.61;100.00
49689;BME280;70518;51.400;7.428;2023-07-31T11:37:47;159288.25;;;20.70;100.00
49689;BME280;70518;51.400;7.428;2023-07-31T11:40:14;159206.50;;;20.38;100.00
49689;BME280;70518;51.400;7.428;2023-07-31T11:42:39;159261.00;;;20.60;100.00
49689;BME280;70518;51.400;7.428;2023-07-31T11:45:06;159253.22;;;20.57;100.00
49689;BME280;70518;51.400;7.428;2023-07-31T11:47:33;159211.66;;;20.40;100.00
49689;BME280;70518;51.400;7.428;2023-07-31T11:50:06;159184.44;;;20.30;100.00
49689;BME280;70518;51.400;7.428;2023-07-31T11:52:40;159215.59;;;20.42;100.00
49689;BME280;70518;51.400;7.428;2023-07-31T11:55:08;159211.66;;;20.40;100.00
49689;BME280;70518;51.400;7.428;2023-07-31T11:57:41;159284.38;;;20.69;100.00
49689;BME280;70518;51.400;7.428;2023-07-31T12:00:09;159203.88;;;20.37;100.00
49689;BME280;70518;51.400;7.428;2023-07-31T12:02:36;159180.53;;;20.28;100.00
49689;BME280;70518;51.400;7.428;2023-07-31T12:05:05;159190.94;;;20.32;100.00
49689;BME280;70518;51.400;7.428;2023-07-31T12:07:51;159181.84;;;20.29;100.00
49689;BME280;70518;51.400;7.428;2023-07-31T12:10:30;159200.03;;;20.36;100.00
49689;BME280;70518;51.400;7.428;2023-07-31T12:13:04;159222.06;;;20.44;100.00
49689;BME280;70518;51.400;7.428;2023-07-31T12:15:38;159237.66;;;20.50;100.00
49689;BME280;70518;51.400;7.428;2023-07-31T12:18:09;159259.72;;;20.59;100.00
49689;BME280;70518;51.400;7.428;2023-07-31T12:20:35;159267.50;;;20.62;100.00
49689;BME280;70518;51.400;7.428;2023-07-31T12:23:04;159283.06;;;20.68;100.00
49689;BME280;70518;51.400;7.428;2023-07-31T12:25:31;159298.66;;;20.74;100.00
49689;BME280;70518;51.400;7.428;2023-07-31T12:27:57;159360.97;;;20.98;100.00
49689;BME280;70518;51.400;7.428;2023-07-31T12:30:31;159266.19;;;20.62;100.00
49689;BME280;70518;51.400;7.428;2023-07-31T12:32:56;159276.59;;;20.66;100.00
49689;BME280;70518;51.400;7.428;2023-07-31T12:35:21;159323.31;;;20.84;100.00
49689;BME280;70518;51.400;7.428;2023-07-31T12:37:47;159351.88;;;20.95;100.00
49689;BME280;70518;51.400;7.428;2023-07-31T12:40:12;159370.06;;;21.02;100.00
49689;BME280;70518;51.400;7.428;2023-07-31T12:42:37;159412.94;;;21.19;100.00
49689;BME280;70518;51.400;7.428;2023-07-31T12:45:03;159423.34;;;21.23;100.00
49689;BME280;70518;51.400;7.428;2023-07-31T12:47:29;159472.66;;;21.42;100.00